aviador You're here:

KMOB Decoded Metar

MOBILE in AL, USA
Report Time2017-09-23 17:56:00
UTC Time2017-09-23 18:18:57
Flight Rules vfr VFR
Wind090° at 07 kt
W.Decomp.*RWY 14: 4.6 kt HW 5.3 kt LCW
RWY 18: 0.1 kt HW 7 kt LCW
W.Rank090° ranks 32
Current wind is above 090° avg. (6.4)
Visibility9999 m
Phenomena:N/A
Clouds:Scattered 047 Hf
Expected CloudBase > 4,400 ft AGL from Temp-Dew spread
CeilingNone
Temp31°C (ISA +16)
Dew Point20°C (52% RH)
Heat Index33.0°C
QNH1015 hPa
Density Alt2,326 ft
Elevation207 ft
Report Wrong Elevation
Raw Report
METAR KMOB 231756Z 09007KT 10SM SCT047 31/20 A2997=

Extra information for KMOB:More info

Metar Taf Metar & Taf Last 4 Metars F.Rules Stats Wind Profile Meteogram Temp Stats Airport Information Weather charts Add Link Nearby VenuesMetar ALERT Operation Metar Decoded Social comments

AIRNAV info for KMOB